createdAt,value
2023-05-20T00:02:06.221Z,98.54
2023-05-20T00:05:09.625Z,98.35
2023-05-20T00:08:12.735Z,98.23
2023-05-20T00:11:15.807Z,98.41
2023-05-20T00:14:18.749Z,98.25
2023-05-20T00:17:21.948Z,98.21
2023-05-20T00:20:25.449Z,98.58
2023-05-20T00:23:28.659Z,99.00
2023-05-20T00:26:31.486Z,98.73
2023-05-20T00:29:35.063Z,99.20
2023-05-20T00:32:37.939Z,100.00
2023-05-20T00:35:42.718Z,100.00
2023-05-20T00:38:45.843Z,100.00
2023-05-20T00:41:49.107Z,100.00
2023-05-20T00:44:52.970Z,100.00
2023-05-20T00:47:59.942Z,100.00
2023-05-20T00:51:05.137Z,100.00
2023-05-20T00:54:08.296Z,100.00
2023-05-20T00:57:12.053Z,100.00
2023-05-20T01:00:15.421Z,100.00
2023-05-20T01:03:18.368Z,100.00
2023-05-20T01:06:21.539Z,100.00
2023-05-20T01:09:25.313Z,99.92
2023-05-20T01:12:32.025Z,100.00
2023-05-20T01:15:35.909Z,99.93
2023-05-20T01:18:41.181Z,100.00
2023-05-20T01:21:45.246Z,100.00
2023-05-20T01:24:48.638Z,100.00
2023-05-20T01:27:53.033Z,100.00
2023-05-20T01:31:00.913Z,100.00
2023-05-20T01:34:06.025Z,100.00
2023-05-20T01:37:10.882Z,100.00
2023-05-20T01:40:16.769Z,100.00
2023-05-20T01:43:21.184Z,100.00
2023-05-20T01:46:23.979Z,100.00
2023-05-20T01:49:27.703Z,100.00
2023-05-20T01:52:31.982Z,100.00
2023-05-20T01:55:35.251Z,100.00
2023-05-20T01:58:38.200Z,100.00
2023-05-20T02:01:41.924Z,100.00
2023-05-20T02:04:51.601Z,100.00
2023-05-20T02:07:54.443Z,100.00
2023-05-20T02:10:58.661Z,100.00
2023-05-20T02:14:01.465Z,100.00
2023-05-20T02:17:04.825Z,100.00
2023-05-20T02:20:08.320Z,100.00
2023-05-20T02:23:11.861Z,100.00
2023-05-20T02:26:14.640Z,100.00
2023-05-20T02:29:17.968Z,100.00
2023-05-20T02:32:21.680Z,100.00
2023-05-20T02:35:24.904Z,100.00
2023-05-20T02:38:27.785Z,100.00
2023-05-20T02:41:31.017Z,100.00
2023-05-20T02:44:33.819Z,100.00
2023-05-20T02:47:37.190Z,100.00
2023-05-20T02:50:40.833Z,100.00
2023-05-20T02:53:44.104Z,100.00
2023-05-20T02:56:47.198Z,100.00
2023-05-20T02:59:50.492Z,100.00
2023-05-20T03:02:53.374Z,100.00
2023-05-20T03:05:56.593Z,100.00
2023-05-20T03:08:59.725Z,100.00
2023-05-20T03:12:02.763Z,100.00
2023-05-20T03:15:06.517Z,100.00
2023-05-20T03:18:11.464Z,100.00
2023-05-20T03:21:14.284Z,100.00
2023-05-20T03:24:18.360Z,100.00
2023-05-20T03:27:22.873Z,100.00
2023-05-20T03:30:26.598Z,100.00
2023-05-20T03:33:30.432Z,100.00
2023-05-20T03:36:33.602Z,100.00
2023-05-20T03:39:36.643Z,100.00
2023-05-20T03:42:40.230Z,100.00
2023-05-20T03:45:43.051Z,100.00
2023-05-20T03:48:46.482Z,100.00
2023-05-20T03:51:49.350Z,100.00
2023-05-20T03:54:54.593Z,100.00
2023-05-20T03:57:58.136Z,100.00
2023-05-20T04:01:01.302Z,100.00
2023-05-20T04:04:05.296Z,100.00
2023-05-20T04:07:08.604Z,100.00
2023-05-20T04:10:12.719Z,100.00
2023-05-20T04:13:15.465Z,100.00
2023-05-20T04:16:18.673Z,100.00
2023-05-20T04:19:21.612Z,100.00
2023-05-20T04:22:25.294Z,100.00
2023-05-20T04:25:28.151Z,100.00
2023-05-20T04:28:34.021Z,100.00
2023-05-20T04:31:36.912Z,100.00
2023-05-20T04:34:40.141Z,100.00
2023-05-20T04:37:44.915Z,100.00
2023-05-20T04:40:48.064Z,100.00
2023-05-20T04:43:50.816Z,100.00
2023-05-20T04:46:53.971Z,100.00
2023-05-20T04:49:59.776Z,100.00
2023-05-20T04:53:03.092Z,100.00
2023-05-20T04:56:06.133Z,100.00
2023-05-20T04:59:10.729Z,100.00
2023-05-20T05:02:13.877Z,100.00
2023-05-20T05:05:17.223Z,100.00
2023-05-20T05:08:20.061Z,100.00
2023-05-20T05:11:24.074Z,100.00
2023-05-20T05:14:27.306Z,100.00
2023-05-20T05:17:31.474Z,100.00
2023-05-20T05:20:34.297Z,100.00
2023-05-20T05:23:37.669Z,98.49
2023-05-20T05:26:40.741Z,96.85
2023-05-20T05:29:44.051Z,95.81
2023-05-20T05:32:46.839Z,95.35
2023-05-20T05:35:51.268Z,94.49
2023-05-20T05:38:54.288Z,94.27
2023-05-20T05:41:58.276Z,92.08
2023-05-20T05:45:01.354Z,88.41
2023-05-20T05:48:04.967Z,87.97
2023-05-20T05:51:08.060Z,87.26
2023-05-20T05:54:11.581Z,84.58
2023-05-20T05:57:14.457Z,86.18
2023-05-20T06:00:17.884Z,85.89
2023-05-20T06:03:20.700Z,84.29
2023-05-20T06:06:24.177Z,83.67
2023-05-20T06:09:26.998Z,84.21
2023-05-20T06:12:30.299Z,83.96
2023-05-20T06:15:33.264Z,80.25
2023-05-20T06:18:38.120Z,82.07
2023-05-20T06:21:41.878Z,79.35
2023-05-20T06:24:45.375Z,78.23
2023-05-20T06:27:48.595Z,79.50
2023-05-20T06:30:55.039Z,80.88
2023-05-20T06:33:59.435Z,78.93
2023-05-20T06:37:02.813Z,79.88
2023-05-20T06:40:06.357Z,80.52
2023-05-20T06:43:10.668Z,82.66
2023-05-20T06:46:17.065Z,84.77
2023-05-20T06:49:21.282Z,84.37
2023-05-20T06:52:24.497Z,83.47
2023-05-20T06:55:28.439Z,82.90
2023-05-20T06:58:31.339Z,81.78
2023-05-20T07:01:34.676Z,79.65
2023-05-20T07:04:37.930Z,79.48
2023-05-20T07:07:41.248Z,78.31
2023-05-20T07:10:46.747Z,74.42
2023-05-20T07:13:50.848Z,73.26
2023-05-20T07:16:53.806Z,73.66
2023-05-20T07:19:57.212Z,69.88
2023-05-20T07:23:01.209Z,69.94
2023-05-20T07:26:05.048Z,69.10
2023-05-20T07:29:08.166Z,67.53
2023-05-20T07:32:12.939Z,65.67
2023-05-20T07:35:15.802Z,64.37
2023-05-20T07:38:19.591Z,64.67
2023-05-20T07:41:22.908Z,61.88
2023-05-20T07:44:26.837Z,59.89
2023-05-20T07:47:33.060Z,61.28
2023-05-20T07:50:38.011Z,55.42
2023-05-20T07:53:40.781Z,58.36
2023-05-20T07:56:43.944Z,54.89
2023-05-20T07:59:47.104Z,56.93
2023-05-20T08:02:51.268Z,58.37
2023-05-20T08:05:54.761Z,56.13
2023-05-20T08:08:57.799Z,54.51
2023-05-20T08:12:01.237Z,54.40
2023-05-20T08:15:05.428Z,53.67
2023-05-20T08:18:08.637Z,53.74
2023-05-20T08:21:12.493Z,50.12
2023-05-20T08:24:16.182Z,50.10
2023-05-20T08:27:19.315Z,46.42
2023-05-20T08:30:23.280Z,49.79
2023-05-20T08:33:26.225Z,49.42
2023-05-20T08:36:29.602Z,48.79
2023-05-20T08:39:32.467Z,48.73
2023-05-20T08:42:35.739Z,48.94
2023-05-20T08:45:39.354Z,46.28
2023-05-20T08:48:42.849Z,47.17
2023-05-20T08:51:47.533Z,47.99
2023-05-20T08:54:52.377Z,48.19
2023-05-20T08:57:55.508Z,48.82
2023-05-20T09:01:02.340Z,47.94
2023-05-20T09:04:05.312Z,47.72
2023-05-20T09:07:08.489Z,47.44
2023-05-20T09:10:11.688Z,48.13
2023-05-20T09:13:14.870Z,48.13
2023-05-20T09:16:17.866Z,47.20
2023-05-20T09:19:24.859Z,46.97
2023-05-20T09:22:29.692Z,47.53
2023-05-20T09:25:33.343Z,45.54
2023-05-20T09:28:38.556Z,45.37
2023-05-20T09:31:41.770Z,46.33
2023-05-20T09:34:47.788Z,46.57
2023-05-20T09:37:55.497Z,45.34
2023-05-20T09:41:01.915Z,46.30
2023-05-20T09:44:07.359Z,43.73
2023-05-20T09:47:10.473Z,42.60
2023-05-20T09:50:15.243Z,42.87
2023-05-20T09:53:18.745Z,42.96
2023-05-20T09:56:25.695Z,41.96
2023-05-20T09:59:30.454Z,41.49
2023-05-20T10:02:38.403Z,43.82
2023-05-20T10:06:05.590Z,40.72
2023-05-20T10:09:41.782Z,41.09
2023-05-20T10:12:50.766Z,41.35
2023-05-20T10:16:05.522Z,39.11
2023-05-20T10:19:32.757Z,41.04
2023-05-20T10:22:35.872Z,40.01
2023-05-20T10:25:38.963Z,38.75
2023-05-20T10:28:42.030Z,38.14
2023-05-20T10:31:49.003Z,36.26
2023-05-20T10:34:51.957Z,36.88
2023-05-20T10:38:06.597Z,37.91
2023-05-20T10:41:11.554Z,36.37
2023-05-20T10:44:14.662Z,34.53
2023-05-20T10:47:25.306Z,37.16
2023-05-20T10:50:36.910Z,39.00
2023-05-20T10:53:41.650Z,36.68
2023-05-20T10:56:55.305Z,36.70
2023-05-20T10:59:59.480Z,36.67
2023-05-20T11:03:03.655Z,36.52
2023-05-20T11:06:16.041Z,35.05
2023-05-20T11:09:20.872Z,33.90
2023-05-20T11:12:28.179Z,34.32
2023-05-20T11:15:32.559Z,33.79
2023-05-20T11:18:35.234Z,35.38
2023-05-20T11:21:44.461Z,34.76
2023-05-20T11:24:47.695Z,33.84
2023-05-20T11:27:52.168Z,33.23
2023-05-20T11:30:55.753Z,36.04
2023-05-20T11:34:02.515Z,36.60
2023-05-20T11:37:10.091Z,36.69
2023-05-20T11:40:13.911Z,35.49
2023-05-20T11:43:17.312Z,34.56
2023-05-20T11:46:21.640Z,34.53
2023-05-20T11:49:24.504Z,35.06
2023-05-20T11:52:29.676Z,34.96
2023-05-20T11:55:45.696Z,35.79
2023-05-20T11:58:48.856Z,36.36
2023-05-20T12:01:51.536Z,35.08
2023-05-20T12:04:54.622Z,35.14
2023-05-20T12:07:57.474Z,33.94
2023-05-20T12:11:00.677Z,35.08
2023-05-20T12:14:04.242Z,35.26
2023-05-20T12:17:07.258Z,36.05
2023-05-20T12:20:10.924Z,34.52
2023-05-20T12:23:13.929Z,34.06
2023-05-20T12:26:17.133Z,34.18
2023-05-20T12:29:20.137Z,33.54
2023-05-20T12:32:23.813Z,32.89
2023-05-20T12:35:40.802Z,32.84
2023-05-20T12:38:43.674Z,32.88
2023-05-20T12:41:46.841Z,32.93
2023-05-20T12:44:49.881Z,32.38
2023-05-20T12:47:54.941Z,32.15
2023-05-20T12:50:57.717Z,33.03
2023-05-20T12:54:01.106Z,32.96
2023-05-20T12:57:04.325Z,31.68
2023-05-20T13:00:09.195Z,32.93
2023-05-20T13:03:12.039Z,31.50
2023-05-20T13:06:15.287Z,32.31
2023-05-20T13:09:18.150Z,32.13
2023-05-20T13:12:21.665Z,32.58
2023-05-20T13:15:24.383Z,32.87
2023-05-20T13:18:27.816Z,33.90
2023-05-20T13:21:30.557Z,32.91
2023-05-20T13:24:34.852Z,32.86
2023-05-20T13:27:37.996Z,32.96
2023-05-20T13:30:41.237Z,34.08
2023-05-20T13:33:44.126Z,32.05
2023-05-20T13:36:48.026Z,32.81
2023-05-20T13:39:51.622Z,33.57
2023-05-20T13:42:54.758Z,33.19
2023-05-20T13:45:57.693Z,34.81
2023-05-20T13:49:01.400Z,35.22
2023-05-20T13:52:04.950Z,36.81
2023-05-20T13:55:08.871Z,36.36
2023-05-20T13:58:12.132Z,34.71
2023-05-20T14:01:15.772Z,35.43
2023-05-20T14:04:19.487Z,35.83
2023-05-20T14:07:22.928Z,35.73
2023-05-20T14:10:26.584Z,36.67
2023-05-20T14:13:29.622Z,36.64
2023-05-20T14:16:33.328Z,36.91
2023-05-20T14:19:36.343Z,37.07
2023-05-20T14:22:39.480Z,37.17
2023-05-20T14:25:42.394Z,36.18
2023-05-20T14:28:47.757Z,35.42
2023-05-20T14:31:51.149Z,35.84
2023-05-20T14:34:54.353Z,36.32
2023-05-20T14:37:57.157Z,37.14
2023-05-20T14:41:00.471Z,37.05
2023-05-20T14:44:03.176Z,36.99
2023-05-20T14:47:06.442Z,36.52
2023-05-20T14:50:09.727Z,35.30
2023-05-20T14:53:12.849Z,35.84
2023-05-20T14:56:15.576Z,35.83
2023-05-20T14:59:19.607Z,35.21
2023-05-20T15:02:22.678Z,35.71
2023-05-20T15:05:25.909Z,35.42
2023-05-20T15:08:29.208Z,35.75
2023-05-20T15:11:32.374Z,35.91
2023-05-20T15:14:35.192Z,36.54
2023-05-20T15:17:38.414Z,36.32
2023-05-20T15:20:41.788Z,34.66
2023-05-20T15:23:45.392Z,35.35
2023-05-20T15:26:48.372Z,35.54
2023-05-20T15:29:51.572Z,35.16
2023-05-20T15:32:54.451Z,35.38
2023-05-20T15:35:58.054Z,35.79
2023-05-20T15:39:01.084Z,35.54
2023-05-20T15:42:05.458Z,36.22
2023-05-20T15:45:09.788Z,35.39
2023-05-20T15:48:12.984Z,36.05
2023-05-20T15:51:15.891Z,36.47
2023-05-20T15:54:20.397Z,36.68
2023-05-20T15:57:23.593Z,37.21
2023-05-20T16:00:26.771Z,37.51
2023-05-20T16:03:30.192Z,38.32
2023-05-20T16:06:34.418Z,38.27
2023-05-20T16:09:37.751Z,37.97
2023-05-20T16:12:40.586Z,38.29
2023-05-20T16:15:44.360Z,38.99
2023-05-20T16:18:47.281Z,39.17
2023-05-20T16:21:50.512Z,38.78
2023-05-20T16:24:53.466Z,39.16
2023-05-20T16:27:58.110Z,39.07
2023-05-20T16:31:02.728Z,40.11
2023-05-20T16:34:10.464Z,41.08
2023-05-20T16:37:18.132Z,40.86
2023-05-20T16:40:23.167Z,40.84
2023-05-20T16:43:25.826Z,40.84
2023-05-20T16:46:29.275Z,40.70
2023-05-20T16:49:32.075Z,41.24
2023-05-20T16:52:36.252Z,41.60
2023-05-20T16:55:39.137Z,41.29
2023-05-20T16:58:42.247Z,40.92
2023-05-20T17:01:45.760Z,41.66
2023-05-20T17:04:49.040Z,42.49
2023-05-20T17:07:51.992Z,42.40
2023-05-20T17:10:55.600Z,43.18
2023-05-20T17:13:58.376Z,43.51
2023-05-20T17:17:01.527Z,43.64
2023-05-20T17:20:08.007Z,43.92
2023-05-20T17:23:11.384Z,44.27
2023-05-20T17:26:14.357Z,44.75
2023-05-20T17:29:17.832Z,45.29
2023-05-20T17:32:21.030Z,45.97
2023-05-20T17:35:28.270Z,47.12
2023-05-20T17:38:31.209Z,46.80
2023-05-20T17:41:34.298Z,47.60
2023-05-20T17:44:37.130Z,48.07
2023-05-20T17:47:40.378Z,48.95
2023-05-20T17:50:45.349Z,49.53
2023-05-20T17:53:48.708Z,50.25
2023-05-20T17:56:51.614Z,51.00
2023-05-20T17:59:55.415Z,52.40
2023-05-20T18:02:58.479Z,52.51
2023-05-20T18:06:02.206Z,53.12
2023-05-20T18:09:06.256Z,54.55
2023-05-20T18:12:09.714Z,55.24
2023-05-20T18:15:14.408Z,55.92
2023-05-20T18:18:17.719Z,56.06
2023-05-20T18:21:22.103Z,56.23
2023-05-20T18:24:25.245Z,56.40
2023-05-20T18:27:28.068Z,56.42
2023-05-20T18:30:31.307Z,57.27
2023-05-20T18:33:35.031Z,57.84
2023-05-20T18:36:38.675Z,58.41
2023-05-20T18:39:41.661Z,54.76
2023-05-20T18:42:45.003Z,55.21
2023-05-20T18:45:47.733Z,54.65
2023-05-20T18:48:51.020Z,55.38
2023-05-20T18:51:53.749Z,55.48
2023-05-20T18:54:56.917Z,53.13
2023-05-20T18:57:59.666Z,54.62
2023-05-20T19:01:02.818Z,53.73
2023-05-20T19:04:06.288Z,53.82
2023-05-20T19:07:11.724Z,54.53
2023-05-20T19:10:15.483Z,55.86
2023-05-20T19:13:18.703Z,55.71
2023-05-20T19:16:21.582Z,55.73
2023-05-20T19:19:24.868Z,55.61
2023-05-20T19:22:27.822Z,55.97
2023-05-20T19:25:31.140Z,56.55
2023-05-20T19:28:34.018Z,58.33
2023-05-20T19:31:41.547Z,58.54
2023-05-20T19:34:44.943Z,58.66
2023-05-20T19:37:48.101Z,59.24
2023-05-20T19:40:51.101Z,59.73
2023-05-20T19:43:54.219Z,59.91
2023-05-20T19:46:56.953Z,59.95
2023-05-20T19:50:00.170Z,61.59
2023-05-20T19:53:06.505Z,62.15
2023-05-20T19:56:09.720Z,61.97
2023-05-20T19:59:13.265Z,63.26
2023-05-20T20:02:16.495Z,62.81
2023-05-20T20:05:22.367Z,62.94
2023-05-20T20:08:26.507Z,63.15
2023-05-20T20:11:29.566Z,63.25
2023-05-20T20:14:32.699Z,63.90
2023-05-20T20:17:35.778Z,64.01
2023-05-20T20:20:40.846Z,63.94
2023-05-20T20:23:43.950Z,63.94
2023-05-20T20:26:49.426Z,65.23
2023-05-20T20:29:52.990Z,65.33
2023-05-20T20:32:56.073Z,65.31
2023-05-20T20:35:59.246Z,65.02
2023-05-20T20:39:05.400Z,64.81
2023-05-20T20:42:08.579Z,65.29
2023-05-20T20:45:18.824Z,66.74
2023-05-20T20:48:27.280Z,69.68
2023-05-20T20:51:30.331Z,71.29
2023-05-20T20:54:33.566Z,73.16
2023-05-20T20:57:36.988Z,73.89
2023-05-20T21:00:44.917Z,75.80
2023-05-20T21:03:48.647Z,76.99
2023-05-20T21:06:52.493Z,76.94
2023-05-20T21:09:55.922Z,76.27
2023-05-20T21:12:59.590Z,77.04
2023-05-20T21:16:02.473Z,76.99
2023-05-20T21:19:05.551Z,78.82
2023-05-20T21:22:08.401Z,78.68
2023-05-20T21:25:11.471Z,77.77
2023-05-20T21:28:14.406Z,77.42
2023-05-20T21:31:17.729Z,78.50
2023-05-20T21:34:20.660Z,77.62
2023-05-20T21:37:23.939Z,78.76
2023-05-20T21:40:26.732Z,78.73
2023-05-20T21:43:31.006Z,78.62
2023-05-20T21:46:33.958Z,78.70
2023-05-20T21:49:37.034Z,78.74
2023-05-20T21:52:40.435Z,77.93
2023-05-20T21:55:43.428Z,78.29
2023-05-20T21:58:46.111Z,79.00
2023-05-20T22:01:51.053Z,79.35
2023-05-20T22:04:55.513Z,78.78
2023-05-20T22:08:00.857Z,79.11
2023-05-20T22:11:05.621Z,79.36
2023-05-20T22:14:08.551Z,79.28
2023-05-20T22:17:11.729Z,79.26
2023-05-20T22:20:14.652Z,80.09
2023-05-20T22:23:18.001Z,80.51
2023-05-20T22:26:20.908Z,79.41
2023-05-20T22:29:24.056Z,78.69
2023-05-20T22:32:26.795Z,78.87
2023-05-20T22:35:30.026Z,78.85
2023-05-20T22:38:33.016Z,79.28
2023-05-20T22:41:36.313Z,79.98
2023-05-20T22:44:39.096Z,79.86
2023-05-20T22:47:42.225Z,80.32
2023-05-20T22:50:45.761Z,80.42
2023-05-20T22:53:49.282Z,79.81
2023-05-20T22:56:59.333Z,80.19
2023-05-20T23:00:02.730Z,80.32
2023-05-20T23:03:06.115Z,80.59
2023-05-20T23:06:09.524Z,80.27
2023-05-20T23:09:13.040Z,80.55
2023-05-20T23:12:16.619Z,80.23
2023-05-20T23:15:19.459Z,79.93
2023-05-20T23:18:22.555Z,80.24
2023-05-20T23:21:25.607Z,78.57
2023-05-20T23:24:28.903Z,78.35
2023-05-20T23:27:32.325Z,77.81
2023-05-20T23:30:36.419Z,77.96
2023-05-20T23:33:39.196Z,78.65
2023-05-20T23:36:42.765Z,78.71
2023-05-20T23:39:46.368Z,77.62
2023-05-20T23:42:49.447Z,78.53
2023-05-20T23:45:52.168Z,77.04
2023-05-20T23:48:55.206Z,77.58
2023-05-20T23:51:58.085Z,77.95
2023-05-20T23:55:01.292Z,78.21
2023-05-20T23:58:04.053Z,78.63
